Time;durP1;ratioP1;P1;durP2;ratioP2;P2;SDS_P1;SDS_P2;PMS_P1;PMS_P2;Temp;Humidity;BMP_temperature;BMP_pressure;BME280_temperature;BME280_humidity;BME280_pressure;Samples;Min_cycle;Max_cycle;Signal;HPM_P1;HPM_P2
2022/09/27 00:02:20;;;;;;;1.90;1.13;;;11.20;99.90;;;;;;5038543;28;20251;-72
2022/09/27 00:04:46;;;;;;;1.13;0.80;;;11.20;99.90;;;;;;5040039;28;20776;-72
2022/09/27 00:07:11;;;;;;;0.53;0.53;;;11.20;99.90;;;;;;5044359;28;20216;-72
2022/09/27 00:09:37;;;;;;;0.80;0.80;;;11.20;99.90;;;;;;5031451;28;20232;-72
2022/09/27 00:12:03;;;;;;;1.00;1.00;;;11.20;99.90;;;;;;5032007;28;20215;-72
2022/09/27 00:14:29;;;;;;;1.33;0.70;;;11.20;99.90;;;;;;5042745;28;20705;-72
2022/09/27 00:16:55;;;;;;;0.60;0.60;;;11.20;99.90;;;;;;5044428;28;20211;-70
2022/09/27 00:19:22;;;;;;;2.10;0.70;;;11.20;99.90;;;;;;5042099;28;20580;-71
2022/09/27 00:21:49;;;;;;;1.90;0.90;;;11.20;99.90;;;;;;5038850;28;20227;-72
2022/09/27 00:24:20;;;;;;;1.17;0.70;;;11.20;99.90;;;;;;5034617;28;20966;-72
2022/09/27 00:26:47;;;;;;;0.63;0.63;;;11.20;99.90;;;;;;5024767;28;20502;-72
2022/09/27 00:29:14;;;;;;;0.80;0.80;;;11.20;99.90;;;;;;5041048;28;20447;-72
2022/09/27 00:31:40;;;;;;;1.07;0.90;;;11.10;99.90;;;;;;5027642;28;20529;-72
2022/09/27 00:34:10;;;;;;;0.80;0.73;;;11.10;99.90;;;;;;5041385;28;20462;-71
2022/09/27 00:36:36;;;;;;;1.37;0.80;;;11.10;99.90;;;;;;5040542;28;20446;-72
2022/09/27 00:39:02;;;;;;;0.60;0.60;;;11.10;99.90;;;;;;5042619;28;20453;-72
2022/09/27 00:41:31;;;;;;;0.70;0.70;;;11.10;99.90;;;;;;5027844;28;20600;-71
2022/09/27 00:44:03;;;;;;;1.37;0.90;;;11.10;99.90;;;;;;5026892;28;20459;-72
2022/09/27 00:46:38;;;;;;;1.70;0.80;;;11.10;99.90;;;;;;5040993;28;20451;-71
2022/09/27 00:49:23;;;;;;;0.70;0.70;;;11.10;99.90;;;;;;5041845;28;20468;-72
2022/09/27 00:51:54;;;;;;;0.90;0.90;;;11.10;99.90;;;;;;5042245;28;20465;-72
2022/09/27 00:54:24;;;;;;;0.80;0.80;;;11.10;99.90;;;;;;5023441;28;20509;-72
2022/09/27 00:56:51;;;;;;;5.73;1.10;;;11.10;99.90;;;;;;5035857;28;20463;-71
2022/09/27 00:59:23;;;;;;;2.17;0.90;;;11.10;99.90;;;;;;5034495;28;20475;-71
2022/09/27 01:01:49;;;;;;;0.70;0.70;;;11.10;99.90;;;;;;5027015;28;20485;-72
2022/09/27 01:04:22;;;;;;;2.00;1.63;;;11.10;99.90;;;;;;5034784;28;20457;-72
2022/09/27 01:06:48;;;;;;;0.97;0.80;;;11.10;99.90;;;;;;5037199;28;20462;-72
2022/09/27 01:09:14;;;;;;;3.80;1.10;;;11.10;99.90;;;;;;5028705;28;20457;-72
2022/09/27 01:12:08;;;;;;;1.43;1.00;;;11.10;99.90;;;;;;5038498;28;20455;-72
2022/09/27 01:14:52;;;;;;;4.60;1.23;;;11.10;99.90;;;;;;5043177;28;20455;-72
2022/09/27 01:17:43;;;;;;;2.50;1.10;;;11.10;99.90;;;;;;5038594;28;20508;-72
2022/09/27 01:20:30;;;;;;;0.87;0.87;;;11.10;99.90;;;;;;5022609;28;20470;-72
2022/09/27 01:23:08;;;;;;;0.87;0.87;;;11.10;99.90;;;;;;5024151;28;20458;-72
2022/09/27 01:25:47;;;;;;;2.20;1.37;;;11.10;99.90;;;;;;5032492;28;20541;-72
2022/09/27 01:28:48;;;;;;;1.20;1.10;;;11.10;99.90;;;;;;5038207;28;20450;-72
2022/09/27 01:31:41;;;;;;;1.27;1.07;;;11.20;99.90;;;;;;5033682;28;20551;-72
2022/09/27 01:34:18;;;;;;;2.80;1.10;;;11.10;99.90;;;;;;5040870;28;20447;-72
2022/09/27 01:37:06;;;;;;;2.27;1.30;;;11.10;99.90;;;;;;5041793;28;20450;-72
2022/09/27 01:39:57;;;;;;;1.03;0.80;;;11.10;99.90;;;;;;5051275;28;20934;-72
2022/09/27 01:42:40;;;;;;;1.10;1.00;;;11.10;99.90;;;;;;5038854;28;20454;-72
2022/09/27 01:45:24;;;;;;;1.33;1.23;;;11.10;99.90;;;;;;5036807;28;20504;-72
2022/09/27 01:48:21;;;;;;;1.20;1.10;;;11.10;99.90;;;;;;5035722;28;20482;-71
2022/09/27 01:51:08;;;;;;;5.90;1.10;;;11.00;99.90;;;;;;5038128;28;20475;-72
2022/09/27 01:53:46;;;;;;;2.77;1.40;;;11.00;99.90;;;;;;5023111;28;20461;-72
2022/09/27 01:56:37;;;;;;;1.20;1.10;;;11.00;99.90;;;;;;5035783;28;20451;-72
2022/09/27 01:59:18;;;;;;;2.10;1.17;;;10.90;99.90;;;;;;5044923;28;20459;-72
2022/09/27 02:01:52;;;;;;;1.60;0.93;;;11.00;99.90;;;;;;5035140;28;20464;-72
2022/09/27 02:04:30;;;;;;;2.70;1.50;;;10.90;99.90;;;;;;5035020;28;20454;-72
2022/09/27 02:07:23;;;;;;;1.60;1.03;;;10.90;99.90;;;;;;5034506;28;20459;-73
2022/09/27 02:10:17;;;;;;;2.50;1.40;;;10.90;99.90;;;;;;5037423;28;20493;-72
2022/09/27 02:13:22;;;;;;;1.73;1.30;;;10.80;99.90;;;;;;5019746;28;20479;-71
2022/09/27 02:16:01;;;;;;;1.43;1.17;;;10.80;99.90;;;;;;5037986;28;20458;-72
2022/09/27 02:19:05;;;;;;;1.57;1.30;;;10.80;99.90;;;;;;5042891;28;20468;-72
2022/09/27 02:21:39;;;;;;;2.27;1.13;;;10.80;99.90;;;;;;5035436;28;20519;-72
2022/09/27 02:24:10;;;;;;;1.77;1.20;;;10.70;99.90;;;;;;5043582;28;20484;-72
2022/09/27 02:26:41;;;;;;;2.37;0.90;;;10.70;99.90;;;;;;5036169;28;20861;-70
2022/09/27 02:29:09;;;;;;;3.83;1.70;;;10.70;99.90;;;;;;5035521;28;20458;-72
2022/09/27 02:31:43;;;;;;;2.70;1.47;;;10.70;99.90;;;;;;5046493;28;20845;-73
2022/09/27 02:34:18;;;;;;;1.03;0.93;;;10.70;99.90;;;;;;5034900;28;20451;-72
2022/09/27 02:36:44;;;;;;;1.17;1.07;;;10.70;99.90;;;;;;5034505;28;20216;-72
2022/09/27 02:39:10;;;;;;;0.90;0.90;;;10.70;99.90;;;;;;5035093;28;20513;-73
2022/09/27 02:41:36;;;;;;;2.50;1.20;;;10.70;99.90;;;;;;5021954;28;20223;-72
2022/09/27 02:44:08;;;;;;;4.50;1.00;;;10.70;99.90;;;;;;5035038;28;20461;-71
2022/09/27 02:47:11;;;;;;;1.33;0.83;;;10.70;99.90;;;;;;5030819;28;20208;-72
2022/09/27 02:49:58;;;;;;;1.60;0.93;;;10.70;99.90;;;;;;4991940;28;20479;-72
2022/09/27 02:53:08;;;;;;;1.00;0.60;;;10.60;99.90;;;;;;5040271;28;20589;-71
2022/09/27 02:56:16;;;;;;;0.60;0.60;;;10.60;99.90;;;;;;5030808;28;20989;-72
2022/09/27 02:59:16;;;;;;;0.70;0.60;;;10.60;99.90;;;;;;5038759;28;20489;-71
2022/09/27 03:02:07;;;;;;;0.60;0.57;;;10.60;99.90;;;;;;5012981;28;20455;-72
2022/09/27 03:04:58;;;;;;;1.23;0.70;;;10.60;99.90;;;;;;5034465;28;20463;-71
2022/09/27 03:07:24;;;;;;;0.80;0.50;;;10.60;99.90;;;;;;5038177;28;20462;-70
2022/09/27 03:09:51;;;;;;;0.50;0.50;;;10.60;99.90;;;;;;5024798;28;20478;-71
2022/09/27 03:12:24;;;;;;;0.50;0.50;;;10.60;99.90;;;;;;5032189;28;20474;-72
2022/09/27 03:15:00;;;;;;;0.50;0.50;;;10.60;99.90;;;;;;5038661;28;20446;-71
2022/09/27 03:17:46;;;;;;;0.60;0.40;;;10.50;99.90;;;;;;5037850;28;20529;-72
2022/09/27 03:20:30;;;;;;;0.80;0.63;;;10.50;99.90;;;;;;5030667;28;20510;-72
2022/09/27 03:23:26;;;;;;;1.17;0.50;;;10.50;99.90;;;;;;5027469;28;20471;-72
2022/09/27 03:25:52;;;;;;;1.17;0.63;;;10.50;99.90;;;;;;5038101;28;20466;-72
2022/09/27 03:28:18;;;;;;;0.50;0.40;;;10.50;99.90;;;;;;5025096;28;20455;-72
2022/09/27 03:30:45;;;;;;;1.00;0.47;;;10.40;99.90;;;;;;5031389;28;20552;-72
2022/09/27 03:33:13;;;;;;;0.40;0.40;;;10.50;99.90;;;;;;5049693;28;20463;-71
2022/09/27 03:35:45;;;;;;;0.47;0.47;;;10.50;99.90;;;;;;5024273;28;20521;-72
2022/09/27 03:38:13;;;;;;;0.50;0.50;;;10.50;99.90;;;;;;5032655;28;20467;-70
2022/09/27 03:40:39;;;;;;;2.33;0.70;;;10.50;99.90;;;;;;5035849;28;20513;-72
2022/09/27 03:43:06;;;;;;;0.90;0.60;;;10.40;99.90;;;;;;5030978;28;20459;-70
2022/09/27 03:45:32;;;;;;;0.67;0.67;;;10.40;99.90;;;;;;5042941;28;20455;-72
2022/09/27 03:48:00;;;;;;;1.17;0.60;;;10.30;99.90;;;;;;5040366;28;20465;-72
2022/09/27 03:50:26;;;;;;;0.60;0.50;;;10.30;99.90;;;;;;5042264;28;20466;-72
2022/09/27 03:52:53;;;;;;;0.97;0.47;;;10.30;99.90;;;;;;5034865;28;20286;-72
2022/09/27 03:55:19;;;;;;;0.97;0.40;;;10.20;99.90;;;;;;5028020;28;20212;-72
2022/09/27 03:57:46;;;;;;;0.50;0.40;;;10.20;99.90;;;;;;5054159;28;20454;-73
2022/09/27 04:00:13;;;;;;;0.53;0.53;;;10.20;99.90;;;;;;5025463;28;20525;-72
2022/09/27 04:02:39;;;;;;;0.40;0.40;;;10.20;99.90;;;;;;5043089;28;20503;-72
2022/09/27 04:05:28;;;;;;;0.70;0.60;;;10.20;99.90;;;;;;5044436;28;20458;-72
2022/09/27 04:08:16;;;;;;;1.10;0.80;;;10.10;99.90;;;;;;5046191;28;20459;-72
2022/09/27 04:10:42;;;;;;;0.77;0.77;;;10.10;99.90;;;;;;5027778;28;21063;-72
2022/09/27 04:13:08;;;;;;;1.13;1.03;;;10.10;99.90;;;;;;5041645;28;20226;-72
2022/09/27 04:15:41;;;;;;;0.73;0.73;;;10.10;99.90;;;;;;5044380;28;20710;-72
2022/09/27 04:18:25;;;;;;;0.93;0.80;;;10.10;99.90;;;;;;5044265;28;20493;-72
2022/09/27 04:21:09;;;;;;;1.93;0.60;;;10.10;99.90;;;;;;5042409;28;20458;-72
2022/09/27 04:23:39;;;;;;;0.50;0.50;;;10.10;99.90;;;;;;5026577;28;20552;-71
2022/09/27 04:26:06;;;;;;;1.50;0.83;;;10.00;99.90;;;;;;5037608;28;20477;-72
2022/09/27 04:28:50;;;;;;;1.27;1.07;;;10.00;99.90;;;;;;5047321;28;20462;-72
2022/09/27 04:31:15;;;;;;;1.60;0.80;;;10.00;99.90;;;;;;5029635;28;20603;-72
2022/09/27 04:34:10;;;;;;;0.63;0.60;;;10.00;99.90;;;;;;5048900;28;20453;-71
2022/09/27 04:36:36;;;;;;;2.27;1.30;;;10.00;99.90;;;;;;5041610;28;20984;-72
2022/09/27 04:39:12;;;;;;;2.40;1.93;;;9.90;99.90;;;;;;5059260;28;20231;-72
2022/09/27 04:41:46;;;;;;;4.33;2.10;;;9.90;99.90;;;;;;5032497;28;20470;-72
2022/09/27 04:44:12;;;;;;;2.40;1.80;;;9.90;99.90;;;;;;5040373;28;20470;-72
2022/09/27 04:46:40;;;;;;;2.20;1.70;;;9.90;99.90;;;;;;5059985;28;20208;-71
2022/09/27 04:49:06;;;;;;;6.27;3.00;;;9.90;99.90;;;;;;5029495;28;20488;-71
2022/09/27 04:51:34;;;;;;;1.00;0.90;;;9.90;99.90;;;;;;5025534;28;20232;-71
2022/09/27 04:54:00;;;;;;;0.80;0.80;;;9.90;99.90;;;;;;5046616;28;20460;-71
2022/09/27 04:56:30;;;;;;;1.30;1.20;;;9.90;99.90;;;;;;5032618;28;20224;-71
2022/09/27 04:58:55;;;;;;;1.50;1.40;;;9.80;99.90;;;;;;5038900;28;20535;-71
2022/09/27 05:01:21;;;;;;;3.10;1.57;;;9.80;99.90;;;;;;5047040;28;20572;-72
2022/09/27 05:04:02;;;;;;;1.50;1.40;;;9.80;99.90;;;;;;5035963;28;20219;-71
2022/09/27 05:06:29;;;;;;;2.20;1.50;;;9.80;99.90;;;;;;5040662;28;20478;-71
2022/09/27 05:08:59;;;;;;;2.10;1.20;;;9.80;99.90;;;;;;5036359;28;20497;-71
2022/09/27 05:11:27;;;;;;;3.03;1.73;;;9.80;99.90;;;;;;5047261;28;20481;-71
2022/09/27 05:14:27;;;;;;;2.13;1.50;;;9.80;99.90;;;;;;5045125;28;20485;-72
2022/09/27 05:17:06;;;;;;;2.57;1.20;;;9.70;99.90;;;;;;5035505;28;20615;-72
2022/09/27 05:19:48;;;;;;;2.10;1.77;;;9.70;99.90;;;;;;5033063;28;20499;-71
2022/09/27 05:22:34;;;;;;;4.30;1.90;;;9.80;99.90;;;;;;5042980;28;20828;-72
2022/09/27 05:25:00;;;;;;;1.50;1.40;;;9.80;99.90;;;;;;5041480;28;20447;-71
2022/09/27 05:27:26;;;;;;;3.20;1.80;;;9.70;99.90;;;;;;5047065;28;20215;-72
2022/09/27 05:29:53;;;;;;;1.20;1.10;;;9.80;99.90;;;;;;5043427;28;20247;-71
2022/09/27 05:32:42;;;;;;;1.70;1.30;;;9.70;99.90;;;;;;5040907;28;20219;-71
2022/09/27 05:35:34;;;;;;;1.10;1.00;;;9.70;99.90;;;;;;5044902;28;20454;-72
2022/09/27 05:38:00;;;;;;;0.93;0.80;;;9.70;99.90;;;;;;5027857;28;20454;-72
2022/09/27 05:40:29;;;;;;;1.80;0.97;;;9.70;99.90;;;;;;5036500;28;20964;-71
2022/09/27 05:42:55;;;;;;;1.20;0.90;;;9.70;99.90;;;;;;5043348;28;20452;-71
2022/09/27 05:45:22;;;;;;;1.20;1.00;;;9.70;99.90;;;;;;5034413;28;20220;-72
2022/09/27 05:47:56;;;;;;;1.50;0.90;;;9.70;99.90;;;;;;5037641;28;20446;-72
2022/09/27 05:50:23;;;;;;;1.50;1.13;;;9.70;99.90;;;;;;5032005;28;21029;-72
2022/09/27 05:52:49;;;;;;;1.57;1.23;;;9.70;99.90;;;;;;5033257;28;20470;-72
2022/09/27 05:55:17;;;;;;;0.83;0.63;;;9.70;99.90;;;;;;5035635;28;20574;-71
2022/09/27 05:57:57;;;;;;;1.03;0.97;;;9.70;99.90;;;;;;5033785;28;20538;-71
2022/09/27 06:00:27;;;;;;;0.60;0.60;;;9.70;99.90;;;;;;5038965;28;20228;-72
2022/09/27 06:02:59;;;;;;;0.90;0.80;;;9.70;99.90;;;;;;5049798;28;20462;-72
2022/09/27 06:05:44;;;;;;;0.93;0.87;;;9.70;99.90;;;;;;5034522;28;20508;-71
2022/09/27 06:08:44;;;;;;;1.53;1.00;;;9.70;99.90;;;;;;5038598;28;20498;-72
2022/09/27 06:11:14;;;;;;;0.80;0.80;;;9.60;99.90;;;;;;5035467;28;20479;-72
2022/09/27 06:13:40;;;;;;;1.07;1.03;;;9.70;99.90;;;;;;5030852;28;20466;-72
2022/09/27 06:16:10;;;;;;;1.67;1.10;;;9.70;99.90;;;;;;5027976;28;20464;-72
2022/09/27 06:18:37;;;;;;;1.10;1.00;;;9.70;99.90;;;;;;5031044;28;20485;-72
2022/09/27 06:21:04;;;;;;;0.80;0.80;;;9.70;99.90;;;;;;5027567;28;20837;-72
2022/09/27 06:23:31;;;;;;;1.43;0.83;;;9.70;99.90;;;;;;5033755;28;20460;-72
2022/09/27 06:26:04;;;;;;;0.63;0.63;;;9.70;99.90;;;;;;5031014;28;20466;-72
2022/09/27 06:28:37;;;;;;;1.03;1.03;;;9.70;99.90;;;;;;5043079;28;20466;-72
2022/09/27 06:31:07;;;;;;;1.53;0.90;;;9.70;99.90;;;;;;5034128;28;20537;-72
2022/09/27 06:33:59;;;;;;;1.00;0.63;;;9.70;99.90;;;;;;5035003;28;20451;-72
2022/09/27 06:36:25;;;;;;;0.90;0.90;;;9.70;99.90;;;;;;5038555;28;20470;-71
2022/09/27 06:38:51;;;;;;;0.70;0.70;;;9.70;99.90;;;;;;5051117;28;20455;-72
2022/09/27 06:41:22;;;;;;;0.70;0.60;;;9.70;99.90;;;;;;5020931;28;20616;-72
2022/09/27 06:43:55;;;;;;;0.93;0.70;;;9.70;99.90;;;;;;5033436;28;20475;-72
2022/09/27 06:46:29;;;;;;;0.60;0.50;;;9.70;99.90;;;;;;5039624;28;20823;-72
2022/09/27 06:49:21;;;;;;;0.50;0.50;;;9.70;99.90;;;;;;5036920;28;20823;-72
2022/09/27 06:51:48;;;;;;;1.73;0.60;;;9.70;99.90;;;;;;5035771;28;20565;-74
2022/09/27 06:54:13;;;;;;;0.50;0.50;;;9.70;99.90;;;;;;5029771;28;20454;-72
2022/09/27 06:56:39;;;;;;;1.00;0.73;;;9.60;99.90;;;;;;5034446;28;20989;-72
2022/09/27 07:01:51;;;;;;;0.50;0.40;;;9.70;99.90;;;;;;5037671;28;20216;-72
2022/09/27 07:04:35;;;;;;;0.87;0.87;;;9.70;99.90;;;;;;5034472;28;20454;-72
2022/09/27 07:07:01;;;;;;;1.00;0.97;;;9.70;99.90;;;;;;5035984;28;20458;-72
2022/09/27 07:09:33;;;;;;;2.13;0.53;;;9.70;99.90;;;;;;5034870;28;20220;-72
2022/09/27 07:11:59;;;;;;;1.03;0.70;;;9.70;99.90;;;;;;5046230;28;20497;-72
2022/09/27 07:14:26;;;;;;;0.73;0.73;;;9.70;99.90;;;;;;5034232;28;20530;-72
2022/09/27 07:16:52;;;;;;;0.70;0.70;;;9.70;99.90;;;;;;5035725;28;20455;-71
2022/09/27 07:19:18;;;;;;;2.90;0.87;;;9.70;99.90;;;;;;5030932;28;20454;-72
2022/09/27 07:21:46;;;;;;;0.70;0.70;;;9.70;99.90;;;;;;5053750;28;20216;-72
2022/09/27 07:24:11;;;;;;;2.50;0.90;;;9.70;99.90;;;;;;5034940;28;20516;-70
2022/09/27 07:26:38;;;;;;;0.80;0.80;;;9.70;99.90;;;;;;5037820;28;20234;-71
2022/09/27 07:29:06;;;;;;;0.70;0.60;;;9.70;99.90;;;;;;5029935;28;20546;-69
2022/09/27 07:31:33;;;;;;;0.70;0.60;;;9.70;99.90;;;;;;5031044;28;20466;-70
2022/09/27 07:33:59;;;;;;;0.70;0.70;;;9.70;99.90;;;;;;5040773;28;20460;-72
2022/09/27 07:36:25;;;;;;;1.17;0.70;;;9.70;99.90;;;;;;5034216;28;20229;-71
2022/09/27 07:38:51;;;;;;;0.77;0.77;;;9.80;99.90;;;;;;5038673;28;20687;-72
2022/09/27 07:41:18;;;;;;;0.60;0.60;;;9.80;99.90;;;;;;5031086;28;20219;-72
2022/09/27 07:43:44;;;;;;;1.40;0.83;;;9.80;99.90;;;;;;5034066;28;20893;-72
2022/09/27 07:46:10;;;;;;;5.43;0.80;;;9.80;99.90;;;;;;5034333;28;20597;-72
2022/09/27 07:48:45;;;;;;;0.87;0.87;;;9.80;99.90;;;;;;5025712;28;20463;-72
2022/09/27 07:51:32;;;;;;;0.80;0.80;;;9.90;99.90;;;;;;5013569;28;20506;-72
2022/09/27 07:54:08;;;;;;;1.70;0.80;;;9.90;99.90;;;;;;5029418;28;20550;-72
2022/09/27 07:57:13;;;;;;;1.40;0.90;;;9.90;99.90;;;;;;5061607;28;20440;-72
2022/09/27 07:59:48;;;;;;;1.00;0.90;;;10.00;99.90;;;;;;5049807;28;20475;-71
2022/09/27 08:02:17;;;;;;;1.40;1.10;;;10.10;99.90;;;;;;5043949;28;21005;-72
2022/09/27 08:04:45;;;;;;;2.00;1.13;;;10.20;99.90;;;;;;5033337;28;20492;-71
2022/09/27 08:07:12;;;;;;;1.70;1.10;;;10.30;99.90;;;;;;5047912;28;20533;-72
2022/09/27 08:09:39;;;;;;;0.70;0.70;;;10.50;99.90;;;;;;5039915;28;20463;-72
2022/09/27 08:12:04;;;;;;;0.60;0.60;;;10.50;99.90;;;;;;5053767;28;20463;-71
2022/09/27 08:14:31;;;;;;;0.87;0.83;;;10.60;99.90;;;;;;5041699;28;20227;-72
2022/09/27 08:16:57;;;;;;;2.03;0.83;;;10.60;99.90;;;;;;5035266;28;20481;-71
2022/09/27 08:19:26;;;;;;;4.63;0.70;;;10.60;99.90;;;;;;5044372;28;20454;-70
2022/09/27 08:21:55;;;;;;;0.50;0.50;;;10.70;99.90;;;;;;5042396;28;20472;-73
2022/09/27 08:24:23;;;;;;;2.97;0.70;;;10.70;99.90;;;;;;5029957;28;20449;-72
2022/09/27 08:26:59;;;;;;;0.63;0.63;;;10.70;99.90;;;;;;5042551;28;20961;-72
2022/09/27 08:29:44;;;;;;;1.90;1.00;;;10.80;99.90;;;;;;5046140;28;21025;-72
2022/09/27 08:32:11;;;;;;;0.70;0.70;;;10.80;99.90;;;;;;5053071;28;20450;-72
2022/09/27 08:34:37;;;;;;;0.63;0.60;;;10.80;99.90;;;;;;5039954;28;20468;-71
2022/09/27 08:37:03;;;;;;;1.70;0.70;;;10.80;99.90;;;;;;5039189;28;20454;-70
2022/09/27 08:39:29;;;;;;;1.20;0.80;;;10.80;99.90;;;;;;5030408;28;20450;-72
2022/09/27 08:42:26;;;;;;;2.50;0.87;;;10.90;99.90;;;;;;5036442;28;20467;-70
2022/09/27 08:45:10;;;;;;;0.90;0.80;;;10.90;99.90;;;;;;5056658;28;20520;-70
2022/09/27 08:47:46;;;;;;;1.03;0.57;;;11.00;99.90;;;;;;5045634;28;20455;-72
2022/09/27 08:50:21;;;;;;;0.50;0.50;;;11.00;99.90;;;;;;5040382;28;20476;-71
2022/09/27 08:52:59;;;;;;;0.87;0.60;;;11.10;99.90;;;;;;5032883;28;21003;-71
2022/09/27 08:55:36;;;;;;;0.77;0.70;;;11.10;99.90;;;;;;5039217;28;20451;-72
2022/09/27 08:58:13;;;;;;;0.77;0.67;;;11.20;99.90;;;;;;5040472;28;20447;-72
2022/09/27 09:00:41;;;;;;;2.20;0.63;;;11.30;99.90;;;;;;5040451;28;20457;-72
2022/09/27 09:03:17;;;;;;;0.60;0.50;;;11.40;99.90;;;;;;5035053;28;20469;-72
2022/09/27 09:06:04;;;;;;;0.80;0.70;;;11.60;99.90;;;;;;5035705;28;20458;-72
2022/09/27 09:08:29;;;;;;;0.80;0.60;;;11.70;99.90;;;;;;5036759;28;20450;-70
2022/09/27 09:14:12;;;;;;;3.40;0.80;;;11.80;99.90;;;;;;5037631;28;20302;-72
2022/09/27 09:16:51;;;;;;;0.60;0.50;;;11.90;99.90;;;;;;5006913;28;20462;-72
2022/09/27 09:19:52;;;;;;;1.43;0.50;;;12.00;99.90;;;;;;5025902;28;20481;-72
2022/09/27 09:23:22;;;;;;;0.80;0.63;;;12.10;99.90;;;;;;5030366;28;20561;-72
2022/09/27 09:25:57;;;;;;;0.90;0.70;;;12.20;99.90;;;;;;5037856;28;20462;-71
2022/09/27 09:28:41;;;;;;;0.40;0.30;;;12.30;99.90;;;;;;5036634;28;20551;-70
2022/09/27 09:31:37;;;;;;;0.47;0.47;;;12.30;99.90;;;;;;5056383;28;20471;-71
2022/09/27 09:34:18;;;;;;;0.70;0.50;;;12.40;99.90;;;;;;5051932;28;20545;-72
2022/09/27 09:36:51;;;;;;;0.40;0.40;;;12.40;99.90;;;;;;5051438;28;20446;-72
2022/09/27 09:39:27;;;;;;;0.80;0.60;;;12.40;99.90;;;;;;5037013;28;20467;-72
2022/09/27 09:42:13;;;;;;;0.50;0.50;;;12.40;99.90;;;;;;5052180;28;20454;-72
2022/09/27 09:44:57;;;;;;;1.60;0.70;;;12.40;99.90;;;;;;5044694;28;21002;-72
2022/09/27 09:47:45;;;;;;;0.80;0.80;;;12.40;99.90;;;;;;5062692;28;20784;-72
2022/09/27 09:50:16;;;;;;;0.60;0.60;;;12.40;99.90;;;;;;5049376;28;20535;-70
2022/09/27 09:53:03;;;;;;;0.50;0.50;;;12.40;99.90;;;;;;5029800;28;20451;-70
2022/09/27 09:55:34;;;;;;;0.50;0.50;;;12.40;99.90;;;;;;5048935;28;20534;-70
2022/09/27 09:58:27;;;;;;;0.60;0.40;;;12.40;99.90;;;;;;5047676;28;20542;-71
2022/09/27 10:01:09;;;;;;;1.17;0.67;;;12.40;99.90;;;;;;5034512;28;20453;-70
2022/09/27 10:03:35;;;;;;;0.80;0.53;;;12.40;99.90;;;;;;5032368;28;20442;-70
2022/09/27 10:06:01;;;;;;;0.70;0.50;;;12.40;99.90;;;;;;5049427;28;20825;-70
2022/09/27 10:08:27;;;;;;;0.93;0.50;;;12.40;99.90;;;;;;5049787;28;20462;-71
2022/09/27 10:11:24;;;;;;;0.50;0.50;;;12.30;99.90;;;;;;5051684;28;20680;-69
2022/09/27 10:14:02;;;;;;;0.70;0.70;;;12.40;99.90;;;;;;5050037;28;20973;-72
2022/09/27 10:16:28;;;;;;;0.80;0.67;;;12.40;99.90;;;;;;5049798;28;20511;-72
2022/09/27 10:18:59;;;;;;;1.33;0.77;;;12.40;99.90;;;;;;5049494;28;20232;-71
2022/09/27 10:21:29;;;;;;;0.70;0.70;;;12.40;99.90;;;;;;5029587;28;20220;-71
2022/09/27 10:24:12;;;;;;;0.93;0.93;;;12.30;99.90;;;;;;5045002;28;20530;-72
2022/09/27 10:26:58;;;;;;;0.90;0.87;;;12.30;99.90;;;;;;5035670;28;20888;-74
2022/09/27 10:29:35;;;;;;;0.80;0.80;;;12.30;99.90;;;;;;5037933;28;20439;-71
2022/09/27 10:32:04;;;;;;;1.00;1.00;;;12.30;99.90;;;;;;5050400;28;20824;-69
2022/09/27 10:34:39;;;;;;;1.10;1.00;;;12.30;99.90;;;;;;5049420;28;20439;-71
2022/09/27 10:37:16;;;;;;;2.23;1.40;;;12.30;99.90;;;;;;5035861;28;20470;-70
2022/09/27 10:39:52;;;;;;;1.63;0.90;;;12.30;99.90;;;;;;5045235;28;20480;-70
2022/09/27 10:42:36;;;;;;;2.73;1.33;;;12.30;99.90;;;;;;5044849;28;20504;-70
2022/09/27 10:45:29;;;;;;;1.30;1.20;;;12.30;99.90;;;;;;5043311;28;20868;-71
2022/09/27 10:48:00;;;;;;;1.93;1.37;;;12.30;99.90;;;;;;5051450;28;20454;-71
2022/09/27 10:51:07;;;;;;;1.30;1.20;;;12.30;99.90;;;;;;5042113;28;20495;-71
2022/09/27 10:53:46;;;;;;;1.30;1.20;;;12.30;99.90;;;;;;5042492;28;20508;-70
2022/09/27 10:56:25;;;;;;;1.63;1.50;;;12.40;99.90;;;;;;5047941;28;21001;-70
2022/09/27 10:58:51;;;;;;;1.40;1.30;;;12.40;99.90;;;;;;5038892;28;20516;-71
2022/09/27 11:01:19;;;;;;;1.23;1.13;;;12.40;99.90;;;;;;5031638;28;20449;-71
2022/09/27 11:04:05;;;;;;;0.90;0.90;;;12.40;99.90;;;;;;5031961;28;20462;-71
2022/09/27 11:06:37;;;;;;;2.10;1.33;;;12.40;99.90;;;;;;5035019;28;20543;-71
2022/09/27 11:09:25;;;;;;;3.10;1.33;;;12.40;99.90;;;;;;5029362;28;20459;-71
2022/09/27 11:12:12;;;;;;;1.50;1.40;;;12.50;99.90;;;;;;5041091;28;20485;-71
2022/09/27 11:14:39;;;;;;;1.53;1.43;;;12.50;99.90;;;;;;5038186;28;21056;-71
2022/09/27 11:17:08;;;;;;;1.73;1.60;;;12.50;99.90;;;;;;5036674;28;20450;-71
2022/09/27 11:19:51;;;;;;;1.83;1.30;;;12.60;99.90;;;;;;5034571;28;20454;-71
2022/09/27 11:22:34;;;;;;;1.57;1.40;;;12.60;99.90;;;;;;5032604;28;20469;-72
2022/09/27 11:25:01;;;;;;;1.50;1.20;;;12.60;99.90;;;;;;5031482;28;20469;-70
2022/09/27 11:27:59;;;;;;;4.07;1.70;;;12.70;99.90;;;;;;5028680;28;20982;-70
2022/09/27 11:30:49;;;;;;;1.37;1.27;;;12.70;99.90;;;;;;5032252;28;20472;-70
2022/09/27 11:33:35;;;;;;;1.23;1.13;;;12.70;99.90;;;;;;5048637;28;20463;-71
2022/09/27 11:36:38;;;;;;;1.23;1.13;;;12.70;99.90;;;;;;5048040;28;20447;-70
2022/09/27 11:39:21;;;;;;;1.23;1.10;;;12.70;99.90;;;;;;5054537;28;20474;-71
2022/09/27 11:41:58;;;;;;;1.20;1.13;;;12.70;99.90;;;;;;5026358;28;20474;-69
2022/09/27 11:44:50;;;;;;;1.97;1.40;;;12.70;99.90;;;;;;5052503;28;20455;-73
2022/09/27 11:47:44;;;;;;;4.00;1.20;;;12.70;99.90;;;;;;5047059;28;20461;-71
2022/09/27 11:50:19;;;;;;;1.30;1.20;;;12.80;99.90;;;;;;5045376;28;20479;-73
2022/09/27 11:52:44;;;;;;;3.23;1.13;;;12.70;99.90;;;;;;5063152;28;20453;-71
2022/09/27 11:55:22;;;;;;;1.50;1.40;;;12.70;99.90;;;;;;5039886;28;20523;-71
2022/09/27 11:58:02;;;;;;;1.93;1.50;;;12.70;99.90;;;;;;5039860;28;20494;-71
2022/09/27 12:00:51;;;;;;;1.30;1.20;;;12.70;99.90;;;;;;5055324;28;20465;-70
2022/09/27 12:03:32;;;;;;;1.50;1.30;;;12.70;99.90;;;;;;5050988;28;20516;-72
2022/09/27 12:06:02;;;;;;;1.63;1.50;;;12.70;99.90;;;;;;5014593;28;20447;-69
2022/09/27 12:08:41;;;;;;;3.87;1.50;;;12.70;99.90;;;;;;5040703;28;20487;-70
2022/09/27 12:11:19;;;;;;;1.33;1.23;;;12.70;99.90;;;;;;5033418;28;20471;-70
2022/09/27 12:13:51;;;;;;;1.50;1.23;;;12.70;99.90;;;;;;5038423;28;20450;-71
2022/09/27 12:16:19;;;;;;;1.50;1.33;;;12.70;99.90;;;;;;5034026;28;21001;-71
2022/09/27 12:18:47;;;;;;;3.67;1.10;;;12.70;99.90;;;;;;5047258;28;20542;-72
2022/09/27 12:21:41;;;;;;;1.43;1.20;;;12.60;99.90;;;;;;5029564;28;20812;-71
2022/09/27 12:24:23;;;;;;;1.47;1.30;;;12.60;99.90;;;;;;5038360;28;20449;-70
2022/09/27 12:27:08;;;;;;;1.37;1.30;;;12.60;99.90;;;;;;5051909;28;20221;-72
2022/09/27 12:29:38;;;;;;;1.97;1.70;;;12.50;99.90;;;;;;5026684;28;20468;-70
2022/09/27 12:32:25;;;;;;;2.93;1.40;;;12.50;99.90;;;;;;5039558;28;20458;-70
2022/09/27 12:34:59;;;;;;;1.47;1.37;;;12.40;99.90;;;;;;5040016;28;20457;-70
2022/09/27 12:37:38;;;;;;;1.13;1.03;;;12.30;99.90;;;;;;5039627;28;20517;-71
2022/09/27 12:40:18;;;;;;;0.83;0.83;;;12.30;99.90;;;;;;5053999;28;20453;-70
2022/09/27 12:42:52;;;;;;;0.90;0.77;;;12.20;99.90;;;;;;5034683;28;20982;-69
2022/09/27 12:46:00;;;;;;;1.27;0.80;;;12.20;99.90;;;;;;5041429;28;20458;-71
2022/09/27 12:49:04;;;;;;;1.63;1.00;;;12.10;99.90;;;;;;5036101;28;20455;-70
2022/09/27 12:51:42;;;;;;;1.13;1.03;;;12.10;99.90;;;;;;5041768;28;20550;-71
2022/09/27 12:54:42;;;;;;;0.70;0.70;;;12.10;99.90;;;;;;5040443;28;20464;-71
2022/09/27 12:57:17;;;;;;;0.57;0.57;;;12.10;99.90;;;;;;5037234;28;20512;-69
2022/09/27 12:59:43;;;;;;;0.83;0.83;;;12.10;99.90;;;;;;5039358;28;20533;-71
2022/09/27 13:02:46;;;;;;;0.70;0.70;;;12.20;99.90;;;;;;5038526;28;20541;-69
2022/09/27 13:05:49;;;;;;;0.70;0.70;;;12.20;99.90;;;;;;5054008;28;20229;-70
2022/09/27 13:08:44;;;;;;;1.60;0.87;;;12.20;99.90;;;;;;5035061;28;20454;-70
2022/09/27 13:11:35;;;;;;;0.77;0.77;;;12.20;99.90;;;;;;5018126;28;20490;-72
2022/09/27 13:14:03;;;;;;;1.67;1.00;;;12.30;99.90;;;;;;5040268;28;20504;-71
2022/09/27 13:16:29;;;;;;;1.80;1.20;;;12.30;99.90;;;;;;5037814;28;20451;-69
2022/09/27 13:19:02;;;;;;;1.77;0.93;;;12.40;99.90;;;;;;5035896;28;20462;-70
2022/09/27 13:21:48;;;;;;;1.43;1.33;;;12.50;99.90;;;;;;5037297;28;20670;-70
2022/09/27 13:24:31;;;;;;;2.90;1.27;;;12.60;99.90;;;;;;5052984;28;20485;-70
2022/09/27 13:27:00;;;;;;;3.17;1.27;;;12.60;99.90;;;;;;5033256;28;20489;-69
2022/09/27 13:29:28;;;;;;;2.97;1.20;;;12.60;99.90;;;;;;5038275;28;20466;-69
2022/09/27 13:31:58;;;;;;;2.70;1.30;;;12.70;99.90;;;;;;5043335;28;20481;-71
2022/09/27 13:34:52;;;;;;;0.80;0.80;;;12.70;99.90;;;;;;5043999;28;20832;-72
2022/09/27 13:37:44;;;;;;;2.10;1.27;;;12.80;99.90;;;;;;5052842;28;20438;-71
2022/09/27 13:40:29;;;;;;;2.23;1.10;;;12.80;99.90;;;;;;5025643;28;20451;-71
2022/09/27 13:43:40;;;;;;;1.57;1.40;;;12.90;99.90;;;;;;5039303;28;20481;-70
2022/09/27 13:46:20;;;;;;;1.30;1.20;;;12.90;99.90;;;;;;5027486;28;20451;-70